sensor_id;sensor_type;location;lat;lon;timestamp;P1;durP1;ratioP1;P2;durP2;ratioP2
819;SDS011;392;48.838;2.322;2022-11-20T00:00:24;20.20;;;14.50;;
819;SDS011;392;48.838;2.322;2022-11-20T00:02:51;17.57;;;15.10;;
819;SDS011;392;48.838;2.322;2022-11-20T00:05:18;19.50;;;14.90;;
819;SDS011;392;48.838;2.322;2022-11-20T00:07:46;13.43;;;11.97;;
819;SDS011;392;48.838;2.322;2022-11-20T00:10:13;11.60;;;10.40;;
819;SDS011;392;48.838;2.322;2022-11-20T00:12:40;7.23;;;6.53;;
819;SDS011;392;48.838;2.322;2022-11-20T00:15:09;7.10;;;6.50;;
819;SDS011;392;48.838;2.322;2022-11-20T00:17:37;9.70;;;8.80;;
819;SDS011;392;48.838;2.322;2022-11-20T00:20:04;11.17;;;8.00;;
819;SDS011;392;48.838;2.322;2022-11-20T00:22:33;12.80;;;8.90;;
819;SDS011;392;48.838;2.322;2022-11-20T00:25:00;22.57;;;17.17;;
819;SDS011;392;48.838;2.322;2022-11-20T00:27:27;11.57;;;8.07;;
819;SDS011;392;48.838;2.322;2022-11-20T00:29:54;22.90;;;17.80;;
819;SDS011;392;48.838;2.322;2022-11-20T00:32:23;24.23;;;19.97;;
819;SDS011;392;48.838;2.322;2022-11-20T00:34:50;8.37;;;7.20;;
819;SDS011;392;48.838;2.322;2022-11-20T00:37:18;13.83;;;9.30;;
819;SDS011;392;48.838;2.322;2022-11-20T00:39:45;8.30;;;6.20;;
819;SDS011;392;48.838;2.322;2022-11-20T00:42:12;7.13;;;6.53;;
819;SDS011;392;48.838;2.322;2022-11-20T00:44:39;4.53;;;4.10;;
819;SDS011;392;48.838;2.322;2022-11-20T00:47:07;10.40;;;6.50;;
819;SDS011;392;48.838;2.322;2022-11-20T00:49:35;4.30;;;3.63;;
819;SDS011;392;48.838;2.322;2022-11-20T00:52:03;10.03;;;7.20;;
819;SDS011;392;48.838;2.322;2022-11-20T00:54:30;7.80;;;5.63;;
819;SDS011;392;48.838;2.322;2022-11-20T00:56:58;5.90;;;4.87;;
819;SDS011;392;48.838;2.322;2022-11-20T00:59:25;4.87;;;4.00;;
819;SDS011;392;48.838;2.322;2022-11-20T01:01:52;3.73;;;3.03;;
819;SDS011;392;48.838;2.322;2022-11-20T01:04:19;3.43;;;3.13;;
819;SDS011;392;48.838;2.322;2022-11-20T01:06:48;3.53;;;3.23;;
819;SDS011;392;48.838;2.322;2022-11-20T01:09:15;3.60;;;3.10;;
819;SDS011;392;48.838;2.322;2022-11-20T01:11:43;3.13;;;2.83;;
819;SDS011;392;48.838;2.322;2022-11-20T01:14:12;3.57;;;3.10;;
819;SDS011;392;48.838;2.322;2022-11-20T01:16:42;4.33;;;3.70;;
819;SDS011;392;48.838;2.322;2022-11-20T01:19:13;3.43;;;3.03;;
819;SDS011;392;48.838;2.322;2022-11-20T01:21:44;5.70;;;2.97;;
819;SDS011;392;48.838;2.322;2022-11-20T01:24:16;4.50;;;3.23;;
819;SDS011;392;48.838;2.322;2022-11-20T01:26:47;3.50;;;3.20;;
819;SDS011;392;48.838;2.322;2022-11-20T01:29:16;5.90;;;3.07;;
819;SDS011;392;48.838;2.322;2022-11-20T01:31:46;3.20;;;2.90;;
819;SDS011;392;48.838;2.322;2022-11-20T01:34:14;4.30;;;3.17;;
819;SDS011;392;48.838;2.322;2022-11-20T01:36:44;4.53;;;3.27;;
819;SDS011;392;48.838;2.322;2022-11-20T01:39:14;3.80;;;2.97;;
819;SDS011;392;48.838;2.322;2022-11-20T01:41:44;4.60;;;3.47;;
819;SDS011;392;48.838;2.322;2022-11-20T01:44:50;3.53;;;3.23;;
819;SDS011;392;48.838;2.322;2022-11-20T01:47:22;3.60;;;3.30;;
819;SDS011;392;48.838;2.322;2022-11-20T01:49:56;4.10;;;3.70;;
819;SDS011;392;48.838;2.322;2022-11-20T01:52:28;6.80;;;3.13;;
819;SDS011;392;48.838;2.322;2022-11-20T01:55:03;6.30;;;3.30;;
819;SDS011;392;48.838;2.322;2022-11-20T01:57:34;4.37;;;3.60;;
819;SDS011;392;48.838;2.322;2022-11-20T02:00:04;4.97;;;3.50;;
819;SDS011;392;48.838;2.322;2022-11-20T02:02:39;5.33;;;3.97;;
819;SDS011;392;48.838;2.322;2022-11-20T02:05:12;3.73;;;3.30;;
819;SDS011;392;48.838;2.322;2022-11-20T02:07:46;3.70;;;3.10;;
819;SDS011;392;48.838;2.322;2022-11-20T02:10:15;5.87;;;3.40;;
819;SDS011;392;48.838;2.322;2022-11-20T02:12:43;4.93;;;3.40;;
819;SDS011;392;48.838;2.322;2022-11-20T02:15:29;3.73;;;3.43;;
819;SDS011;392;48.838;2.322;2022-11-20T02:17:56;2.90;;;2.53;;
819;SDS011;392;48.838;2.322;2022-11-20T02:20:23;3.10;;;2.80;;
819;SDS011;392;48.838;2.322;2022-11-20T02:22:53;2.87;;;2.67;;
819;SDS011;392;48.838;2.322;2022-11-20T02:25:26;8.27;;;3.20;;
819;SDS011;392;48.838;2.322;2022-11-20T02:27:56;4.93;;;2.90;;
819;SDS011;392;48.838;2.322;2022-11-20T02:30:24;4.80;;;2.73;;
819;SDS011;392;48.838;2.322;2022-11-20T02:32:51;2.60;;;2.40;;
819;SDS011;392;48.838;2.322;2022-11-20T02:38:10;4.43;;;2.90;;
819;SDS011;392;48.838;2.322;2022-11-20T02:40:39;2.50;;;2.30;;
819;SDS011;392;48.838;2.322;2022-11-20T02:43:07;3.03;;;2.73;;
819;SDS011;392;48.838;2.322;2022-11-20T02:45:34;3.93;;;2.60;;
819;SDS011;392;48.838;2.322;2022-11-20T02:48:02;5.83;;;2.57;;
819;SDS011;392;48.838;2.322;2022-11-20T02:50:29;3.30;;;2.43;;
819;SDS011;392;48.838;2.322;2022-11-20T02:52:57;3.47;;;2.60;;
819;SDS011;392;48.838;2.322;2022-11-20T02:55:24;2.67;;;2.47;;
819;SDS011;392;48.838;2.322;2022-11-20T02:57:52;2.77;;;2.13;;
819;SDS011;392;48.838;2.322;2022-11-20T03:00:20;4.00;;;2.37;;
819;SDS011;392;48.838;2.322;2022-11-20T03:02:47;2.53;;;2.37;;
819;SDS011;392;48.838;2.322;2022-11-20T03:05:14;5.67;;;2.40;;
819;SDS011;392;48.838;2.322;2022-11-20T03:07:42;2.70;;;2.50;;
819;SDS011;392;48.838;2.322;2022-11-20T03:10:10;3.27;;;2.67;;
819;SDS011;392;48.838;2.322;2022-11-20T03:12:37;2.40;;;2.20;;
819;SDS011;392;48.838;2.322;2022-11-20T03:15:07;2.23;;;1.90;;
819;SDS011;392;48.838;2.322;2022-11-20T03:17:35;2.50;;;2.30;;
819;SDS011;392;48.838;2.322;2022-11-20T03:20:03;2.87;;;2.40;;
819;SDS011;392;48.838;2.322;2022-11-20T03:22:32;2.30;;;2.03;;
819;SDS011;392;48.838;2.322;2022-11-20T03:24:59;2.83;;;2.00;;
819;SDS011;392;48.838;2.322;2022-11-20T03:27:26;2.00;;;1.90;;
819;SDS011;392;48.838;2.322;2022-11-20T03:29:53;2.40;;;2.13;;
819;SDS011;392;48.838;2.322;2022-11-20T03:32:22;2.70;;;2.50;;
819;SDS011;392;48.838;2.322;2022-11-20T03:34:49;2.53;;;2.23;;
819;SDS011;392;48.838;2.322;2022-11-20T03:37:16;4.67;;;2.43;;
819;SDS011;392;48.838;2.322;2022-11-20T03:39:44;2.50;;;2.30;;
819;SDS011;392;48.838;2.322;2022-11-20T03:42:11;3.00;;;2.63;;
819;SDS011;392;48.838;2.322;2022-11-20T03:44:52;6.40;;;3.13;;
819;SDS011;392;48.838;2.322;2022-11-20T03:47:19;3.60;;;2.27;;
819;SDS011;392;48.838;2.322;2022-11-20T03:49:48;4.63;;;2.40;;
819;SDS011;392;48.838;2.322;2022-11-20T03:52:16;2.57;;;2.37;;
819;SDS011;392;48.838;2.322;2022-11-20T03:54:43;3.43;;;2.57;;
819;SDS011;392;48.838;2.322;2022-11-20T03:57:11;4.40;;;2.73;;
819;SDS011;392;48.838;2.322;2022-11-20T03:59:38;3.63;;;2.40;;
819;SDS011;392;48.838;2.322;2022-11-20T04:02:05;2.97;;;2.63;;
819;SDS011;392;48.838;2.322;2022-11-20T04:04:34;2.10;;;2.00;;
819;SDS011;392;48.838;2.322;2022-11-20T04:07:01;2.93;;;2.63;;
819;SDS011;392;48.838;2.322;2022-11-20T04:09:29;4.30;;;2.53;;
819;SDS011;392;48.838;2.322;2022-11-20T04:11:56;4.53;;;3.00;;
819;SDS011;392;48.838;2.322;2022-11-20T04:14:23;3.97;;;2.60;;
819;SDS011;392;48.838;2.322;2022-11-20T04:16:51;4.60;;;2.80;;
819;SDS011;392;48.838;2.322;2022-11-20T04:19:18;3.70;;;2.70;;
819;SDS011;392;48.838;2.322;2022-11-20T04:21:47;2.77;;;2.47;;
819;SDS011;392;48.838;2.322;2022-11-20T04:24:14;4.07;;;2.70;;
819;SDS011;392;48.838;2.322;2022-11-20T04:26:41;2.77;;;2.57;;
819;SDS011;392;48.838;2.322;2022-11-20T04:29:10;2.77;;;2.57;;
819;SDS011;392;48.838;2.322;2022-11-20T04:31:38;3.53;;;2.00;;
819;SDS011;392;48.838;2.322;2022-11-20T04:34:05;3.77;;;2.50;;
819;SDS011;392;48.838;2.322;2022-11-20T04:36:33;2.63;;;2.33;;
819;SDS011;392;48.838;2.322;2022-11-20T04:39:03;2.83;;;2.40;;
819;SDS011;392;48.838;2.322;2022-11-20T04:41:33;3.87;;;2.30;;
819;SDS011;392;48.838;2.322;2022-11-20T04:44:02;3.90;;;2.57;;
819;SDS011;392;48.838;2.322;2022-11-20T04:46:32;3.30;;;2.37;;
819;SDS011;392;48.838;2.322;2022-11-20T04:49:02;2.70;;;2.47;;
819;SDS011;392;48.838;2.322;2022-11-20T04:51:30;2.80;;;2.60;;
819;SDS011;392;48.838;2.322;2022-11-20T04:53:58;3.30;;;2.43;;
819;SDS011;392;48.838;2.322;2022-11-20T04:56:27;2.50;;;2.30;;
819;SDS011;392;48.838;2.322;2022-11-20T04:58:54;2.63;;;2.43;;
819;SDS011;392;48.838;2.322;2022-11-20T05:01:22;2.30;;;2.10;;
819;SDS011;392;48.838;2.322;2022-11-20T05:03:50;3.90;;;2.50;;
819;SDS011;392;48.838;2.322;2022-11-20T05:06:19;3.73;;;2.73;;
819;SDS011;392;48.838;2.322;2022-11-20T05:08:49;2.90;;;2.70;;
819;SDS011;392;48.838;2.322;2022-11-20T05:11:17;5.33;;;2.70;;
819;SDS011;392;48.838;2.322;2022-11-20T05:13:47;3.57;;;2.57;;
819;SDS011;392;48.838;2.322;2022-11-20T05:16:16;3.30;;;3.00;;
819;SDS011;392;48.838;2.322;2022-11-20T05:18:45;2.77;;;2.47;;
819;SDS011;392;48.838;2.322;2022-11-20T05:21:13;3.87;;;3.10;;
819;SDS011;392;48.838;2.322;2022-11-20T05:23:41;2.90;;;2.70;;
819;SDS011;392;48.838;2.322;2022-11-20T05:26:12;2.67;;;2.40;;
819;SDS011;392;48.838;2.322;2022-11-20T05:28:41;2.50;;;2.30;;
819;SDS011;392;48.838;2.322;2022-11-20T05:31:11;3.30;;;2.70;;
819;SDS011;392;48.838;2.322;2022-11-20T05:33:40;2.47;;;2.27;;
819;SDS011;392;48.838;2.322;2022-11-20T05:36:09;2.57;;;2.20;;
819;SDS011;392;48.838;2.322;2022-11-20T05:38:37;4.10;;;2.47;;
819;SDS011;392;48.838;2.322;2022-11-20T05:41:06;2.93;;;2.60;;
819;SDS011;392;48.838;2.322;2022-11-20T05:43:35;5.30;;;2.90;;
819;SDS011;392;48.838;2.322;2022-11-20T05:46:06;3.30;;;2.70;;
819;SDS011;392;48.838;2.322;2022-11-20T05:48:36;3.83;;;2.70;;
819;SDS011;392;48.838;2.322;2022-11-20T05:51:05;2.83;;;2.63;;
819;SDS011;392;48.838;2.322;2022-11-20T05:53:35;4.60;;;3.10;;
819;SDS011;392;48.838;2.322;2022-11-20T05:56:04;3.50;;;3.10;;
819;SDS011;392;48.838;2.322;2022-11-20T05:58:35;3.17;;;2.87;;
819;SDS011;392;48.838;2.322;2022-11-20T06:01:04;4.33;;;3.07;;
819;SDS011;392;48.838;2.322;2022-11-20T06:03:35;4.77;;;3.43;;
819;SDS011;392;48.838;2.322;2022-11-20T06:06:04;3.70;;;3.40;;
819;SDS011;392;48.838;2.322;2022-11-20T06:08:33;4.20;;;3.40;;
819;SDS011;392;48.838;2.322;2022-11-20T06:11:02;3.73;;;3.43;;
819;SDS011;392;48.838;2.322;2022-11-20T06:13:31;4.60;;;3.67;;
819;SDS011;392;48.838;2.322;2022-11-20T06:15:59;5.90;;;3.63;;
819;SDS011;392;48.838;2.322;2022-11-20T06:18:26;6.90;;;3.70;;
819;SDS011;392;48.838;2.322;2022-11-20T06:21:02;5.23;;;3.73;;
819;SDS011;392;48.838;2.322;2022-11-20T06:23:32;4.10;;;3.70;;
819;SDS011;392;48.838;2.322;2022-11-20T06:26:01;4.33;;;3.70;;
819;SDS011;392;48.838;2.322;2022-11-20T06:28:30;5.43;;;3.60;;
819;SDS011;392;48.838;2.322;2022-11-20T06:30:58;4.20;;;3.90;;
819;SDS011;392;48.838;2.322;2022-11-20T06:33:25;5.32;;;4.15;;
819;SDS011;392;48.838;2.322;2022-11-20T06:35:55;4.80;;;4.40;;
819;SDS011;392;48.838;2.322;2022-11-20T06:38:24;4.80;;;4.30;;
819;SDS011;392;48.838;2.322;2022-11-20T06:40:52;5.65;;;4.40;;
819;SDS011;392;48.838;2.322;2022-11-20T06:43:21;4.88;;;4.32;;
819;SDS011;392;48.838;2.322;2022-11-20T06:45:51;5.35;;;4.40;;
819;SDS011;392;48.838;2.322;2022-11-20T06:48:19;4.65;;;4.22;;
819;SDS011;392;48.838;2.322;2022-11-20T06:50:46;4.82;;;4.32;;
819;SDS011;392;48.838;2.322;2022-11-20T06:53:13;7.03;;;4.70;;
819;SDS011;392;48.838;2.322;2022-11-20T06:55:43;5.45;;;4.40;;
819;SDS011;392;48.838;2.322;2022-11-20T06:58:10;5.35;;;4.80;;
819;SDS011;392;48.838;2.322;2022-11-20T07:00:38;6.63;;;4.93;;
819;SDS011;392;48.838;2.322;2022-11-20T07:03:06;6.03;;;5.22;;
819;SDS011;392;48.838;2.322;2022-11-20T07:05:35;7.05;;;5.20;;
819;SDS011;392;48.838;2.322;2022-11-20T07:08:04;5.88;;;5.15;;
819;SDS011;392;48.838;2.322;2022-11-20T07:10:31;7.22;;;5.85;;
819;SDS011;392;48.838;2.322;2022-11-20T07:13:00;6.18;;;5.57;;
819;SDS011;392;48.838;2.322;2022-11-20T07:15:28;7.50;;;6.03;;
819;SDS011;392;48.838;2.322;2022-11-20T07:17:58;5.93;;;5.30;;
819;SDS011;392;48.838;2.322;2022-11-20T07:20:26;6.00;;;5.40;;
819;SDS011;392;48.838;2.322;2022-11-20T07:22:53;5.82;;;5.32;;
819;SDS011;392;48.838;2.322;2022-11-20T07:25:21;5.43;;;4.93;;
819;SDS011;392;48.838;2.322;2022-11-20T07:27:49;6.10;;;5.55;;
819;SDS011;392;48.838;2.322;2022-11-20T07:30:18;5.40;;;4.90;;
819;SDS011;392;48.838;2.322;2022-11-20T07:32:46;5.57;;;5.07;;
819;SDS011;392;48.838;2.322;2022-11-20T07:35:14;5.80;;;5.20;;
819;SDS011;392;48.838;2.322;2022-11-20T07:37:41;5.55;;;4.50;;
819;SDS011;392;48.838;2.322;2022-11-20T07:40:09;6.37;;;5.23;;
819;SDS011;392;48.838;2.322;2022-11-20T07:42:38;5.20;;;4.70;;
819;SDS011;392;48.838;2.322;2022-11-20T07:45:05;4.80;;;4.30;;
819;SDS011;392;48.838;2.322;2022-11-20T07:47:36;7.32;;;4.05;;
819;SDS011;392;48.838;2.322;2022-11-20T07:50:03;4.40;;;4.00;;
819;SDS011;392;48.838;2.322;2022-11-20T07:52:32;5.68;;;4.40;;
819;SDS011;392;48.838;2.322;2022-11-20T07:55:00;4.70;;;4.20;;
819;SDS011;392;48.838;2.322;2022-11-20T07:57:27;5.20;;;3.87;;
819;SDS011;392;48.838;2.322;2022-11-20T07:59:54;5.28;;;3.92;;
819;SDS011;392;48.838;2.322;2022-11-20T08:02:21;7.07;;;4.00;;
819;SDS011;392;48.838;2.322;2022-11-20T08:04:51;4.33;;;3.70;;
819;SDS011;392;48.838;2.322;2022-11-20T08:07:18;6.63;;;4.22;;
819;SDS011;392;48.838;2.322;2022-11-20T08:09:45;4.35;;;3.95;;
819;SDS011;392;48.838;2.322;2022-11-20T08:12:16;4.35;;;3.95;;
819;SDS011;392;48.838;2.322;2022-11-20T08:15:11;5.30;;;4.30;;
819;SDS011;392;48.838;2.322;2022-11-20T08:17:38;4.03;;;3.70;;
819;SDS011;392;48.838;2.322;2022-11-20T08:20:07;4.40;;;4.00;;
819;SDS011;392;48.838;2.322;2022-11-20T08:22:35;4.60;;;4.20;;
819;SDS011;392;48.838;2.322;2022-11-20T08:25:03;5.07;;;4.67;;
819;SDS011;392;48.838;2.322;2022-11-20T08:27:31;5.00;;;4.50;;
819;SDS011;392;48.838;2.322;2022-11-20T08:29:59;5.37;;;4.67;;
819;SDS011;392;48.838;2.322;2022-11-20T08:32:26;5.30;;;4.90;;
819;SDS011;392;48.838;2.322;2022-11-20T08:34:53;8.13;;;4.70;;
819;SDS011;392;48.838;2.322;2022-11-20T08:37:22;5.00;;;4.60;;
819;SDS011;392;48.838;2.322;2022-11-20T08:39:49;5.10;;;3.97;;
819;SDS011;392;48.838;2.322;2022-11-20T08:42:18;4.67;;;4.23;;
819;SDS011;392;48.838;2.322;2022-11-20T08:44:46;4.90;;;4.37;;
819;SDS011;392;48.838;2.322;2022-11-20T08:47:13;5.50;;;4.40;;
819;SDS011;392;48.838;2.322;2022-11-20T08:49:40;5.20;;;4.70;;
819;SDS011;392;48.838;2.322;2022-11-20T08:52:07;6.07;;;5.40;;
819;SDS011;392;48.838;2.322;2022-11-20T08:54:36;7.37;;;5.63;;
819;SDS011;392;48.838;2.322;2022-11-20T08:57:03;6.80;;;6.17;;
819;SDS011;392;48.838;2.322;2022-11-20T08:59:30;7.63;;;6.30;;
819;SDS011;392;48.838;2.322;2022-11-20T09:01:58;6.87;;;6.27;;
819;SDS011;392;48.838;2.322;2022-11-20T09:04:25;7.10;;;6.03;;
819;SDS011;392;48.838;2.322;2022-11-20T09:06:52;6.90;;;5.80;;
819;SDS011;392;48.838;2.322;2022-11-20T09:09:19;7.10;;;6.40;;
819;SDS011;392;48.838;2.322;2022-11-20T09:11:48;7.03;;;6.30;;
819;SDS011;392;48.838;2.322;2022-11-20T09:14:16;8.70;;;6.93;;
819;SDS011;392;48.838;2.322;2022-11-20T09:16:44;8.00;;;6.30;;
819;SDS011;392;48.838;2.322;2022-11-20T09:19:12;6.57;;;5.97;;
819;SDS011;392;48.838;2.322;2022-11-20T09:21:39;6.97;;;6.37;;
819;SDS011;392;48.838;2.322;2022-11-20T09:24:07;6.40;;;5.80;;
819;SDS011;392;48.838;2.322;2022-11-20T09:26:34;7.17;;;5.97;;
819;SDS011;392;48.838;2.322;2022-11-20T09:29:03;7.53;;;6.82;;
819;SDS011;392;48.838;2.322;2022-11-20T09:31:31;7.00;;;6.10;;
819;SDS011;392;48.838;2.322;2022-11-20T09:33:58;7.00;;;6.40;;
819;SDS011;392;48.838;2.322;2022-11-20T09:36:26;8.07;;;7.03;;
819;SDS011;392;48.838;2.322;2022-11-20T09:38:53;8.63;;;7.73;;
819;SDS011;392;48.838;2.322;2022-11-20T09:41:32;7.83;;;7.03;;
819;SDS011;392;48.838;2.322;2022-11-20T09:44:27;7.67;;;6.93;;
819;SDS011;392;48.838;2.322;2022-11-20T09:47:11;8.90;;;7.83;;
819;SDS011;392;48.838;2.322;2022-11-20T09:49:49;7.97;;;7.18;;
819;SDS011;392;48.838;2.322;2022-11-20T09:52:31;9.45;;;7.72;;
819;SDS011;392;48.838;2.322;2022-11-20T09:55:06;8.67;;;7.80;;
819;SDS011;392;48.838;2.322;2022-11-20T09:57:37;9.05;;;7.93;;
819;SDS011;392;48.838;2.322;2022-11-20T10:00:11;9.43;;;7.85;;
819;SDS011;392;48.838;2.322;2022-11-20T10:02:42;10.30;;;7.50;;
819;SDS011;392;48.838;2.322;2022-11-20T10:05:16;9.27;;;8.30;;
819;SDS011;392;48.838;2.322;2022-11-20T10:07:48;8.53;;;7.73;;
819;SDS011;392;48.838;2.322;2022-11-20T10:10:22;9.80;;;8.80;;
819;SDS011;392;48.838;2.322;2022-11-20T10:13:02;7.70;;;7.00;;
819;SDS011;392;48.838;2.322;2022-11-20T10:15:47;8.13;;;7.33;;
819;SDS011;392;48.838;2.322;2022-11-20T10:18:30;7.70;;;6.87;;
819;SDS011;392;48.838;2.322;2022-11-20T10:21:14;6.87;;;6.30;;
819;SDS011;392;48.838;2.322;2022-11-20T10:23:58;8.17;;;7.00;;
819;SDS011;392;48.838;2.322;2022-11-20T10:26:52;8.63;;;6.60;;
819;SDS011;392;48.838;2.322;2022-11-20T10:29:32;6.73;;;6.13;;
819;SDS011;392;48.838;2.322;2022-11-20T10:32:03;8.17;;;6.77;;
819;SDS011;392;48.838;2.322;2022-11-20T10:34:43;7.07;;;6.20;;
819;SDS011;392;48.838;2.322;2022-11-20T10:37:17;7.43;;;6.07;;
819;SDS011;392;48.838;2.322;2022-11-20T10:39:50;6.73;;;6.03;;
819;SDS011;392;48.838;2.322;2022-11-20T10:42:25;6.80;;;5.80;;
819;SDS011;392;48.838;2.322;2022-11-20T10:45:01;6.30;;;5.80;;
819;SDS011;392;48.838;2.322;2022-11-20T10:47:41;6.23;;;5.73;;
819;SDS011;392;48.838;2.322;2022-11-20T10:50:09;6.10;;;5.60;;
819;SDS011;392;48.838;2.322;2022-11-20T10:52:43;5.60;;;5.10;;
819;SDS011;392;48.838;2.322;2022-11-20T10:55:25;6.07;;;5.50;;
819;SDS011;392;48.838;2.322;2022-11-20T10:58:01;4.93;;;4.43;;
819;SDS011;392;48.838;2.322;2022-11-20T11:00:37;5.30;;;4.90;;
819;SDS011;392;48.838;2.322;2022-11-20T11:03:11;5.07;;;4.57;;
819;SDS011;392;48.838;2.322;2022-11-20T11:05:49;7.10;;;4.27;;
819;SDS011;392;48.838;2.322;2022-11-20T11:08:21;4.83;;;4.33;;
819;SDS011;392;48.838;2.322;2022-11-20T11:10:53;6.07;;;4.80;;
819;SDS011;392;48.838;2.322;2022-11-20T11:13:24;4.03;;;3.60;;
819;SDS011;392;48.838;2.322;2022-11-20T11:15:55;4.10;;;3.70;;
819;SDS011;392;48.838;2.322;2022-11-20T11:18:24;4.23;;;3.83;;
819;SDS011;392;48.838;2.322;2022-11-20T11:20:55;4.30;;;3.90;;
819;SDS011;392;48.838;2.322;2022-11-20T11:23:29;3.43;;;3.17;;
819;SDS011;392;48.838;2.322;2022-11-20T11:26:00;3.40;;;3.10;;
819;SDS011;392;48.838;2.322;2022-11-20T11:28:30;8.73;;;7.83;;
819;SDS011;392;48.838;2.322;2022-11-20T11:30:58;6.13;;;3.37;;
819;SDS011;392;48.838;2.322;2022-11-20T11:33:28;3.20;;;2.83;;
819;SDS011;392;48.838;2.322;2022-11-20T11:35:59;3.13;;;2.80;;
819;SDS011;392;48.838;2.322;2022-11-20T11:38:29;4.03;;;3.57;;
819;SDS011;392;48.838;2.322;2022-11-20T11:41:01;3.30;;;3.10;;
819;SDS011;392;48.838;2.322;2022-11-20T11:43:32;2.53;;;2.33;;
819;SDS011;392;48.838;2.322;2022-11-20T11:46:24;4.73;;;3.40;;
819;SDS011;392;48.838;2.322;2022-11-20T11:49:01;5.43;;;3.90;;
819;SDS011;392;48.838;2.322;2022-11-20T11:51:41;3.10;;;2.90;;
819;SDS011;392;48.838;2.322;2022-11-20T11:54:26;2.43;;;2.30;;
819;SDS011;392;48.838;2.322;2022-11-20T11:57:01;2.93;;;2.73;;
819;SDS011;392;48.838;2.322;2022-11-20T11:59:40;2.90;;;2.70;;
819;SDS011;392;48.838;2.322;2022-11-20T12:02:25;3.70;;;3.40;;
819;SDS011;392;48.838;2.322;2022-11-20T12:05:08;3.27;;;3.00;;
819;SDS011;392;48.838;2.322;2022-11-20T12:07:45;3.00;;;2.80;;
819;SDS011;392;48.838;2.322;2022-11-20T12:10:17;3.43;;;3.13;;
819;SDS011;392;48.838;2.322;2022-11-20T12:12:49;3.40;;;2.90;;
819;SDS011;392;48.838;2.322;2022-11-20T12:15:26;3.20;;;2.90;;
819;SDS011;392;48.838;2.322;2022-11-20T12:17:56;3.77;;;3.40;;
819;SDS011;392;48.838;2.322;2022-11-20T12:20:26;3.90;;;3.60;;
819;SDS011;392;48.838;2.322;2022-11-20T12:23:00;3.43;;;3.10;;
819;SDS011;392;48.838;2.322;2022-11-20T12:25:34;3.20;;;3.00;;
819;SDS011;392;48.838;2.322;2022-11-20T12:28:10;3.17;;;2.90;;
819;SDS011;392;48.838;2.322;2022-11-20T12:30:49;3.40;;;2.93;;
819;SDS011;392;48.838;2.322;2022-11-20T12:36:56;3.27;;;3.00;;
819;SDS011;392;48.838;2.322;2022-11-20T12:39:39;3.43;;;3.13;;
819;SDS011;392;48.838;2.322;2022-11-20T12:42:12;3.00;;;2.70;;
819;SDS011;392;48.838;2.322;2022-11-20T12:45:40;3.87;;;3.10;;
819;SDS011;392;48.838;2.322;2022-11-20T12:48:35;3.30;;;3.10;;
819;SDS011;392;48.838;2.322;2022-11-20T12:51:32;3.27;;;3.00;;
819;SDS011;392;48.838;2.322;2022-11-20T12:54:21;3.83;;;3.53;;
819;SDS011;392;48.838;2.322;2022-11-20T12:57:21;3.93;;;3.30;;
819;SDS011;392;48.838;2.322;2022-11-20T13:00:01;3.70;;;3.40;;
819;SDS011;392;48.838;2.322;2022-11-20T13:02:46;3.90;;;3.60;;
819;SDS011;392;48.838;2.322;2022-11-20T13:05:47;3.83;;;3.53;;
819;SDS011;392;48.838;2.322;2022-11-20T13:08:25;3.70;;;3.40;;
819;SDS011;392;48.838;2.322;2022-11-20T13:10:58;3.77;;;3.43;;
819;SDS011;392;48.838;2.322;2022-11-20T13:13:35;5.67;;;3.90;;
819;SDS011;392;48.838;2.322;2022-11-20T13:16:16;4.00;;;3.60;;
819;SDS011;392;48.838;2.322;2022-11-20T13:18:49;3.53;;;3.20;;
819;SDS011;392;48.838;2.322;2022-11-20T13:21:17;3.50;;;3.20;;
819;SDS011;392;48.838;2.322;2022-11-20T13:23:48;4.07;;;3.73;;
819;SDS011;392;48.838;2.322;2022-11-20T13:26:17;5.83;;;5.33;;
819;SDS011;392;48.838;2.322;2022-11-20T13:28:47;4.10;;;3.70;;
819;SDS011;392;48.838;2.322;2022-11-20T13:31:28;3.67;;;3.37;;
819;SDS011;392;48.838;2.322;2022-11-20T13:33:59;3.97;;;3.60;;
819;SDS011;392;48.838;2.322;2022-11-20T13:36:29;4.57;;;3.50;;
819;SDS011;392;48.838;2.322;2022-11-20T13:38:57;4.20;;;3.80;;
819;SDS011;392;48.838;2.322;2022-11-20T13:41:28;4.47;;;3.90;;
819;SDS011;392;48.838;2.322;2022-11-20T13:44:04;4.47;;;3.60;;
819;SDS011;392;48.838;2.322;2022-11-20T13:46:39;4.10;;;3.53;;
819;SDS011;392;48.838;2.322;2022-11-20T13:49:09;3.70;;;3.50;;
819;SDS011;392;48.838;2.322;2022-11-20T13:51:45;3.83;;;3.47;;
819;SDS011;392;48.838;2.322;2022-11-20T13:54:29;5.53;;;4.57;;
819;SDS011;392;48.838;2.322;2022-11-20T13:57:33;4.73;;;4.33;;
819;SDS011;392;48.838;2.322;2022-11-20T14:00:19;3.70;;;3.37;;
819;SDS011;392;48.838;2.322;2022-11-20T14:02:52;4.10;;;3.70;;
819;SDS011;392;48.838;2.322;2022-11-20T14:05:28;4.17;;;3.77;;
819;SDS011;392;48.838;2.322;2022-11-20T14:08:02;4.37;;;3.77;;
819;SDS011;392;48.838;2.322;2022-11-20T14:10:30;6.43;;;4.03;;
819;SDS011;392;48.838;2.322;2022-11-20T14:13:09;3.70;;;3.40;;
819;SDS011;392;48.838;2.322;2022-11-20T14:15:37;4.60;;;3.60;;
819;SDS011;392;48.838;2.322;2022-11-20T14:18:11;4.00;;;3.60;;
819;SDS011;392;48.838;2.322;2022-11-20T14:20:40;4.53;;;3.50;;
819;SDS011;392;48.838;2.322;2022-11-20T14:23:09;4.37;;;3.97;;
819;SDS011;392;48.838;2.322;2022-11-20T14:25:37;4.00;;;3.60;;
819;SDS011;392;48.838;2.322;2022-11-20T14:28:11;4.27;;;3.87;;
819;SDS011;392;48.838;2.322;2022-11-20T14:30:51;3.80;;;3.50;;
819;SDS011;392;48.838;2.322;2022-11-20T14:33:19;7.60;;;4.60;;
819;SDS011;392;48.838;2.322;2022-11-20T14:35:50;4.77;;;4.07;;
819;SDS011;392;48.838;2.322;2022-11-20T14:38:21;4.67;;;4.10;;
819;SDS011;392;48.838;2.322;2022-11-20T14:40:51;3.80;;;3.20;;
819;SDS011;392;48.838;2.322;2022-11-20T14:43:21;4.10;;;3.67;;
819;SDS011;392;48.838;2.322;2022-11-20T14:45:57;7.43;;;3.90;;
819;SDS011;392;48.838;2.322;2022-11-20T14:48:28;5.37;;;3.20;;
819;SDS011;392;48.838;2.322;2022-11-20T14:50:59;5.10;;;3.53;;
819;SDS011;392;48.838;2.322;2022-11-20T14:53:26;5.80;;;3.60;;
819;SDS011;392;48.838;2.322;2022-11-20T14:55:54;5.07;;;3.73;;
819;SDS011;392;48.838;2.322;2022-11-20T14:58:26;7.33;;;4.00;;
819;SDS011;392;48.838;2.322;2022-11-20T15:00:55;6.00;;;3.40;;
819;SDS011;392;48.838;2.322;2022-11-20T15:03:30;7.30;;;3.30;;
819;SDS011;392;48.838;2.322;2022-11-20T15:05:59;5.57;;;3.73;;
819;SDS011;392;48.838;2.322;2022-11-20T15:08:27;7.17;;;3.83;;
819;SDS011;392;48.838;2.322;2022-11-20T15:10:54;4.93;;;3.50;;
819;SDS011;392;48.838;2.322;2022-11-20T15:13:29;4.30;;;3.33;;
819;SDS011;392;48.838;2.322;2022-11-20T15:15:58;7.17;;;3.93;;
819;SDS011;392;48.838;2.322;2022-11-20T15:18:28;5.80;;;3.43;;
819;SDS011;392;48.838;2.322;2022-11-20T15:21:00;5.20;;;4.13;;
819;SDS011;392;48.838;2.322;2022-11-20T15:23:29;6.57;;;3.70;;
819;SDS011;392;48.838;2.322;2022-11-20T15:25:57;6.60;;;3.80;;
819;SDS011;392;48.838;2.322;2022-11-20T15:28:26;7.87;;;4.70;;
819;SDS011;392;48.838;2.322;2022-11-20T15:30:59;7.43;;;4.00;;
819;SDS011;392;48.838;2.322;2022-11-20T15:33:28;8.67;;;4.07;;
819;SDS011;392;48.838;2.322;2022-11-20T15:35:56;9.80;;;3.60;;
819;SDS011;392;48.838;2.322;2022-11-20T15:38:23;7.67;;;4.10;;
819;SDS011;392;48.838;2.322;2022-11-20T15:40:50;6.10;;;3.70;;
819;SDS011;392;48.838;2.322;2022-11-20T15:43:18;6.10;;;3.70;;
819;SDS011;392;48.838;2.322;2022-11-20T15:45:47;5.13;;;3.20;;
819;SDS011;392;48.838;2.322;2022-11-20T15:48:19;11.57;;;9.87;;
819;SDS011;392;48.838;2.322;2022-11-20T15:50:51;6.60;;;3.40;;
819;SDS011;392;48.838;2.322;2022-11-20T15:53:22;9.13;;;5.77;;
819;SDS011;392;48.838;2.322;2022-11-20T15:55:49;7.50;;;3.20;;
819;SDS011;392;48.838;2.322;2022-11-20T15:58:17;4.80;;;2.50;;
819;SDS011;392;48.838;2.322;2022-11-20T16:00:44;4.37;;;2.90;;
819;SDS011;392;48.838;2.322;2022-11-20T16:03:13;4.57;;;2.90;;
819;SDS011;392;48.838;2.322;2022-11-20T16:05:42;5.73;;;4.73;;
819;SDS011;392;48.838;2.322;2022-11-20T16:08:10;5.40;;;3.90;;
819;SDS011;392;48.838;2.322;2022-11-20T16:10:37;5.83;;;3.80;;
819;SDS011;392;48.838;2.322;2022-11-20T16:13:09;4.73;;;3.47;;
819;SDS011;392;48.838;2.322;2022-11-20T16:15:59;4.20;;;3.70;;